Language: 


Des rapports , des résumés tant et plus, au choix de chacun....


Données statistiques de la station
Quotidien Rapport Mars 5, 2017 Unités:  les deux    Anglais   Métrique
« Précédent Jour
Suivant Jour »
Quotidien Hebdomadaire Mensuel Annuel Actuel
  Haut: Bas: Moyen:
Température: TemperatureC °F /  -17.8 °C 0.0 °F /  -17.8 °C 6.7 °F /  -14.1 °C
Pt de rosée: DewpointC °F /  -17.8 °C 3.7 °F /  -15.7 °C 5.4 °F /  -14.8 °C
Humidité: Humidity % 0 % 91 %
Vitesse du vent: WindSpeedKMH mph /  0 km/h - 16.1 mph /  25.9 km/h
Rafales: WindSpeedGustKMH mph /  0 km/h - -
Vent:- - SW
Pression: PressurehPa in /  0 hPa 0.0 in /  0 hPa -
Précipitation: 9.1 in /  231.14 mm    
Historical Graphs
 
 
Données statistiques pour Mars 5, 2017
Heure Température Point de rosée Pression Vent Vitesse du vent Refales Humidité Pluie (taux horaire)
TemperatureC °F /  -17.8 °C DewpointC °F /  -17.8 °C PressurehPa in /  0 hPa Calm     Humidity % HourlyPrecipMM in /  0 mm
00:03 7.3 °F /  -13.7 °C 6.3 °F /  -14.3 °C 994.1 in /  33660.2 hPa SW 20.9 mph /  33.6 km/h 21.2 mph /  34.1 km/h 93 % 0.0 in /  0 mm
00:08 7.3 °F /  -13.7 °C 6.3 °F /  -14.3 °C 994.1 in /  33660.2 hPa SW 11.6 mph /  18.7 km/h 21.2 mph /  34.1 km/h 93 % 0.0 in /  0 mm
00:13 7.3 °F /  -13.7 °C 6.3 °F /  -14.3 °C 994.1 in /  33660.2 hPa SW 13.0 mph /  20.9 km/h 20.9 mph /  33.6 km/h 93 % 0.0 in /  0 mm
00:18 7.3 °F /  -13.7 °C 6.3 °F /  -14.3 °C 994.1 in /  33660.2 hPa SW 14.0 mph /  22.5 km/h 20.1 mph /  32.3 km/h 93 % 0.0 in /  0 mm
00:23 7.3 °F /  -13.7 °C 6.3 °F /  -14.3 °C 994.1 in /  33660.2 hPa SSW 9.0 mph /  14.5 km/h 20.1 mph /  32.3 km/h 93 % 0.0 in /  0 mm
00:28 7.3 °F /  -13.7 °C 6.3 °F /  -14.3 °C 994.1 in /  33660.2 hPa WSW 17.2 mph /  27.7 km/h 19.8 mph /  31.9 km/h 93 % 0.0 in /  0 mm
00:33 7.3 °F /  -13.7 °C 6.3 °F /  -14.3 °C 994.1 in /  33660.2 hPa WSW 17.7 mph /  28.5 km/h 20.6 mph /  33.2 km/h 93 % 0.0 in /  0 mm
00:38 7.3 °F /  -13.7 °C 6.3 °F /  -14.3 °C 995.1 in /  33694.1 hPa WSW 15.8 mph /  25.4 km/h 20.9 mph /  33.6 km/h 93 % 0.0 in /  0 mm
00:44 7.3 °F /  -13.7 °C 6.3 °F /  -14.3 °C 995.1 in /  33694.1 hPa SSW 15.4 mph /  24.8 km/h 20.9 mph /  33.6 km/h 93 % 0.0 in /  0 mm
00:49 7.3 °F /  -13.7 °C 6.3 °F /  -14.3 °C 995.1 in /  33694.1 hPa SW 12.6 mph /  20.3 km/h 17.7 mph /  28.5 km/h 93 % 0.0 in /  0 mm
00:54 7.3 °F /  -13.7 °C 6.3 °F /  -14.3 °C 996.2 in /  33731.3 hPa SW 12.2 mph /  19.6 km/h 21.2 mph /  34.1 km/h 93 % 0.0 in /  0 mm
00:59 7.4 °F /  -13.7 °C 6.4 °F /  -14.2 °C 996.2 in /  33731.3 hPa WSW 15.4 mph /  24.8 km/h 21.2 mph /  34.1 km/h 93 % 0.0 in /  0 mm
01:04 7.6 °F /  -13.6 °C 6.5 °F /  -14.2 °C 996.2 in /  33731.3 hPa SW 12.6 mph /  20.3 km/h 23.0 mph /  37 km/h 93 % 0.0 in /  0 mm
01:09 7.6 °F /  -13.6 °C 6.5 °F /  -14.2 °C 995.1 in /  33694.1 hPa WSW 25.3 mph /  40.7 km/h 25.3 mph /  40.7 km/h 93 % 0.0 in /  0 mm
01:14 7.6 °F /  -13.6 °C 6.5 °F /  -14.2 °C 995.1 in /  33694.1 hPa SW 23.8 mph /  38.3 km/h 28.8 mph /  46.3 km/h 93 % 0.0 in /  0 mm
01:19 7.7 °F /  -13.5 °C 6.6 °F /  -14.1 °C 995.1 in /  33694.1 hPa SW 18.0 mph /  29 km/h 28.8 mph /  46.3 km/h 93 % 0.0 in /  0 mm
01:24 7.7 °F /  -13.5 °C 6.6 °F /  -14.1 °C 995.1 in /  33694.1 hPa SW 16.9 mph /  27.2 km/h 32.0 mph /  51.5 km/h 93 % 0.0 in /  0 mm
01:29 7.6 °F /  -13.6 °C 6.5 °F /  -14.2 °C 995.1 in /  33694.1 hPa SW 13.0 mph /  20.9 km/h 32.0 mph /  51.5 km/h 93 % 0.0 in /  0 mm
01:34 7.4 °F /  -13.7 °C 6.4 °F /  -14.2 °C 995.1 in /  33694.1 hPa SW 17.7 mph /  28.5 km/h 20.9 mph /  33.6 km/h 93 % 0.0 in /  0 mm
01:39 7.3 °F /  -13.7 °C 6.3 °F /  -14.3 °C 995.1 in /  33694.1 hPa WSW 12.6 mph /  20.3 km/h 20.1 mph /  32.3 km/h 93 % 0.0 in /  0 mm
01:44 7.3 °F /  -13.7 °C 6.2 °F /  -14.3 °C 995.1 in /  33694.1 hPa WSW 16.6 mph /  26.7 km/h 20.9 mph /  33.6 km/h 93 % 0.0 in /  0 mm
01:49 7.3 °F /  -13.7 °C 6.2 °F /  -14.3 °C 995.1 in /  33694.1 hPa WSW 17.7 mph /  28.5 km/h 23.3 mph /  37.5 km/h 93 % 0.0 in /  0 mm
01:54 7.3 °F /  -13.7 °C 6.3 °F /  -14.3 °C 996.2 in /  33731.3 hPa WSW 16.3 mph /  26.2 km/h 23.3 mph /  37.5 km/h 93 % 0.0 in /  0 mm
01:59 7.4 °F /  -13.7 °C 6.4 °F /  -14.2 °C 996.2 in /  33731.3 hPa SW 15.4 mph /  24.8 km/h 23.8 mph /  38.3 km/h 93 % 0.0 in /  0 mm
02:04 7.3 °F /  -13.7 °C 6.3 °F /  -14.3 °C 996.2 in /  33731.3 hPa SW 12.2 mph /  19.6 km/h 21.2 mph /  34.1 km/h 93 % 0.0 in /  0 mm
02:09 7.3 °F /  -13.7 °C 6.3 °F /  -14.3 °C 996.2 in /  33731.3 hPa SW 13.7 mph /  22 km/h 20.9 mph /  33.6 km/h 93 % 0.0 in /  0 mm
02:14 7.3 °F /  -13.7 °C 6.2 °F /  -14.3 °C 996.2 in /  33731.3 hPa SSW 8.7 mph /  14 km/h 20.9 mph /  33.6 km/h 93 % 0.0 in /  0 mm
02:19 7.3 °F /  -13.7 °C 6.2 °F /  -14.3 °C 996.2 in /  33731.3 hPa SW 16.6 mph /  26.7 km/h 20.9 mph /  33.6 km/h 93 % 0.0 in /  0 mm
02:24 7.3 °F /  -13.7 °C 6.2 °F /  -14.3 °C 995.1 in /  33694.1 hPa WSW 21.2 mph /  34.1 km/h 21.2 mph /  34.1 km/h 93 % 0.0 in /  0 mm
02:30 7.2 °F /  -13.8 °C 5.9 °F /  -14.5 °C 995.1 in /  33694.1 hPa SW 14.8 mph /  23.8 km/h 23.0 mph /  37 km/h 92 % 0.0 in /  0 mm
02:35 6.9 °F /  -13.9 °C 5.7 °F /  -14.6 °C 995.1 in /  33694.1 hPa WSW 16.9 mph /  27.2 km/h 23.0 mph /  37 km/h 92 % 0.0 in /  0 mm
02:40 6.9 °F /  -13.9 °C 5.7 °F /  -14.6 °C 996.2 in /  33731.3 hPa SW 15.8 mph /  25.4 km/h 22.7 mph /  36.5 km/h 92 % 0.0 in /  0 mm
02:45 6.9 °F /  -13.9 °C 5.7 °F /  -14.6 °C 996.2 in /  33731.3 hPa WSW 13.7 mph /  22 km/h 22.7 mph /  36.5 km/h 92 % 0.0 in /  0 mm
02:50 6.8 °F /  -14 °C 5.5 °F /  -14.7 °C 996.2 in /  33731.3 hPa SW 15.8 mph /  25.4 km/h 24.5 mph /  39.4 km/h 91 % 0.0 in /  0 mm
02:55 6.8 °F /  -14 °C 5.5 °F /  -14.7 °C 996.2 in /  33731.3 hPa SSW 13.0 mph /  20.9 km/h 24.5 mph /  39.4 km/h 91 % 0.0 in /  0 mm
03:00 6.8 °F /  -14 °C 5.5 °F /  -14.7 °C 996.2 in /  33731.3 hPa WSW 20.6 mph /  33.2 km/h 21.2 mph /  34.1 km/h 91 % 0.0 in /  0 mm
03:06 0.0 °F /  -17.8 °C 5.7 °F /  -14.6 °C 0.0 in /  0 hPa WSW 16.6 mph /  26.7 km/h 18.3 mph /  29.5 km/h 0 % 0.0 in /  0 mm
03:11 6.8 °F /  -14 °C 5.7 °F /  -14.6 °C 996.8 in /  33751.6 hPa SW 10.5 mph /  16.9 km/h 21.2 mph /  34.1 km/h 92 % 0.0 in /  0 mm
03:16 6.8 °F /  -14 °C 5.7 °F /  -14.6 °C 996.8 in /  33751.6 hPa WSW 13.7 mph /  22 km/h 21.2 mph /  34.1 km/h 92 % 0.0 in /  0 mm
03:21 6.8 °F /  -14 °C 5.7 °F /  -14.6 °C 996.8 in /  33751.6 hPa SW 12.2 mph /  19.6 km/h 19.8 mph /  31.9 km/h 92 % 0.0 in /  0 mm
03:26 6.8 °F /  -14 °C 5.8 °F /  -14.6 °C 996.8 in /  33751.6 hPa SW 12.2 mph /  19.6 km/h 20.9 mph /  33.6 km/h 93 % 0.0 in /  0 mm
03:31 6.8 °F /  -14 °C 5.7 °F /  -14.6 °C 996.8 in /  33751.6 hPa SW 14.8 mph /  23.8 km/h 20.9 mph /  33.6 km/h 93 % 0.0 in /  0 mm
03:36 6.8 °F /  -14 °C 5.7 °F /  -14.6 °C 996.8 in /  33751.6 hPa SW 16.6 mph /  26.7 km/h 20.6 mph /  33.2 km/h 93 % 0.0 in /  0 mm
03:41 6.7 °F /  -14.1 °C 5.6 °F /  -14.7 °C 996.8 in /  33751.6 hPa SW 16.3 mph /  26.2 km/h 17.2 mph /  27.7 km/h 93 % 0.0 in /  0 mm
03:46 6.7 °F /  -14.1 °C 5.6 °F /  -14.7 °C 996.8 in /  33751.6 hPa SW 10.1 mph /  16.3 km/h 19.8 mph /  31.9 km/h 93 % 0.0 in /  0 mm
03:51 6.6 °F /  -14.1 °C 5.5 °F /  -14.7 °C 996.8 in /  33751.6 hPa WSW 13.0 mph /  20.9 km/h 19.8 mph /  31.9 km/h 93 % 0.0 in /  0 mm
03:56 6.6 °F /  -14.1 °C 5.3 °F /  -14.8 °C 996.8 in /  33751.6 hPa SW 12.6 mph /  20.3 km/h 16.9 mph /  27.2 km/h 92 % 0.0 in /  0 mm
04:01 6.6 °F /  -14.1 °C 5.3 °F /  -14.8 °C 996.8 in /  33751.6 hPa SSW 10.1 mph /  16.3 km/h 16.9 mph /  27.2 km/h 92 % 0.0 in /  0 mm
04:06 6.4 °F /  -14.2 °C 5.3 °F /  -14.8 °C 996.8 in /  33751.6 hPa WSW 14.0 mph /  22.5 km/h 16.6 mph /  26.7 km/h 92 % 0.0 in /  0 mm
04:11 6.4 °F /  -14.2 °C 5.0 °F /  -15 °C 996.8 in /  33751.6 hPa WSW 16.3 mph /  26.2 km/h 17.7 mph /  28.5 km/h 91 % 0.0 in /  0 mm
04:16 6.4 °F /  -14.2 °C 5.0 °F /  -15 °C 996.8 in /  33751.6 hPa SSW 15.1 mph /  24.3 km/h 18.3 mph /  29.5 km/h 91 % 0.0 in /  0 mm
04:22 6.4 °F /  -14.2 °C 4.8 °F /  -15.1 °C 996.8 in /  33751.6 hPa SSW 10.1 mph /  16.3 km/h 19.8 mph /  31.9 km/h 90 % 0.0 in /  0 mm
04:27 6.3 °F /  -14.3 °C 4.8 °F /  -15.1 °C 996.8 in /  33751.6 hPa SW 12.6 mph /  20.3 km/h 16.3 mph /  26.2 km/h 90 % 0.0 in /  0 mm
04:32 6.3 °F /  -14.3 °C 4.8 °F /  -15.1 °C 996.8 in /  33751.6 hPa SW 10.1 mph /  16.3 km/h 15.4 mph /  24.8 km/h 90 % 0.0 in /  0 mm
04:37 6.3 °F /  -14.3 °C 4.8 °F /  -15.1 °C 996.8 in /  33751.6 hPa SW 15.8 mph /  25.4 km/h 20.1 mph /  32.3 km/h 90 % 0.0 in /  0 mm
04:42 6.3 °F /  -14.3 °C 4.8 °F /  -15.1 °C 996.8 in /  33751.6 hPa SW 12.2 mph /  19.6 km/h 20.1 mph /  32.3 km/h 90 % 0.0 in /  0 mm
04:47 6.4 °F /  -14.2 °C 4.8 °F /  -15.1 °C 996.8 in /  33751.6 hPa SW 9.0 mph /  14.5 km/h 20.1 mph /  32.3 km/h 90 % 0.0 in /  0 mm
04:52 6.3 °F /  -14.3 °C 4.8 °F /  -15.1 °C 996.8 in /  33751.6 hPa SW 9.0 mph /  14.5 km/h 20.1 mph /  32.3 km/h 90 % 0.0 in /  0 mm
04:57 6.3 °F /  -14.3 °C 4.8 °F /  -15.1 °C 996.8 in /  33751.6 hPa SSW 10.1 mph /  16.3 km/h 16.3 mph /  26.2 km/h 90 % 0.0 in /  0 mm
05:02 6.2 °F /  -14.3 °C 4.7 °F /  -15.2 °C 996.8 in /  33751.6 hPa SSW 11.9 mph /  19.2 km/h 13.7 mph /  22 km/h 90 % 0.0 in /  0 mm
05:07 6.2 °F /  -14.3 °C 4.7 °F /  -15.2 °C 996.8 in /  33751.6 hPa WSW 14.8 mph /  23.8 km/h 19.8 mph /  31.9 km/h 90 % 0.0 in /  0 mm
05:12 6.2 °F /  -14.3 °C 4.7 °F /  -15.2 °C 996.8 in /  33751.6 hPa SW 14.0 mph /  22.5 km/h 19.8 mph /  31.9 km/h 90 % 0.0 in /  0 mm
05:17 6.2 °F /  -14.3 °C 4.7 °F /  -15.2 °C 996.8 in /  33751.6 hPa SW 14.3 mph /  23 km/h 20.6 mph /  33.2 km/h 90 % 0.0 in /  0 mm
05:22 6.2 °F /  -14.3 °C 4.7 °F /  -15.2 °C 996.8 in /  33751.6 hPa SSW 10.1 mph /  16.3 km/h 20.6 mph /  33.2 km/h 90 % 0.0 in /  0 mm
05:27 6.2 °F /  -14.3 °C 4.8 °F /  -15.1 °C 996.8 in /  33751.6 hPa WSW 10.5 mph /  16.9 km/h 17.2 mph /  27.7 km/h 91 % 0.0 in /  0 mm
05:32 6.2 °F /  -14.3 °C 4.8 °F /  -15.1 °C 996.8 in /  33751.6 hPa WSW 13.0 mph /  20.9 km/h 17.2 mph /  27.7 km/h 91 % 0.0 in /  0 mm
05:37 6.3 °F /  -14.3 °C 4.9 °F /  -15.1 °C 996.8 in /  33751.6 hPa SSW 8.7 mph /  14 km/h 16.6 mph /  26.7 km/h 91 % 0.0 in /  0 mm
05:42 6.3 °F /  -14.3 °C 4.9 °F /  -15.1 °C 996.8 in /  33751.6 hPa SSW 16.6 mph /  26.7 km/h 16.6 mph /  26.7 km/h 91 % 0.0 in /  0 mm
05:47 6.3 °F /  -14.3 °C 4.9 °F /  -15.1 °C 996.8 in /  33751.6 hPa SSW 14.3 mph /  23 km/h 16.6 mph /  26.7 km/h 91 % 0.0 in /  0 mm
05:52 6.3 °F /  -14.3 °C 4.9 °F /  -15.1 °C 996.8 in /  33751.6 hPa SSW 9.7 mph /  15.6 km/h 14.3 mph /  23 km/h 91 % 0.0 in /  0 mm
05:56 6.1 °F /  -14.4 °C 4.6 °F /  -15.2 °C 996.8 in /  33751.6 hPa SSW 10.5 mph /  16.9 km/h 14.0 mph /  22.5 km/h 90 % 0.0 in /  0 mm
06:02 6.0 °F /  -14.4 °C 4.4 °F /  -15.3 °C 996.8 in /  33751.6 hPa SSW 7.9 mph /  12.7 km/h 14.0 mph /  22.5 km/h 90 % 0.0 in /  0 mm
06:07 5.8 °F /  -14.6 °C 4.3 °F /  -15.4 °C 996.8 in /  33751.6 hPa SSW 9.0 mph /  14.5 km/h 14.0 mph /  22.5 km/h 90 % 0.0 in /  0 mm
06:12 5.7 °F /  -14.6 °C 4.3 °F /  -15.4 °C 996.8 in /  33751.6 hPa SSW 7.9 mph /  12.7 km/h 12.6 mph /  20.3 km/h 91 % 0.0 in /  0 mm
06:17 5.6 °F /  -14.7 °C 4.2 °F /  -15.4 °C 996.8 in /  33751.6 hPa SW 12.6 mph /  20.3 km/h 12.6 mph /  20.3 km/h 91 % 0.0 in /  0 mm
06:22 5.5 °F /  -14.7 °C 4.1 °F /  -15.5 °C 996.8 in /  33751.6 hPa SSW 5.0 mph /  8 km/h 12.6 mph /  20.3 km/h 91 % 0.0 in /  0 mm
06:27 5.3 °F /  -14.8 °C 3.9 °F /  -15.6 °C 996.8 in /  33751.6 hPa SSW 7.6 mph /  12.2 km/h 10.5 mph /  16.9 km/h 91 % 0.0 in /  0 mm
06:32 5.2 °F /  -14.9 °C 3.8 °F /  -15.7 °C 996.8 in /  33751.6 hPa SSW 10.5 mph /  16.9 km/h 10.5 mph /  16.9 km/h 91 % 0.0 in /  0 mm
06:37 5.2 °F /  -14.9 °C 4.0 °F /  -15.6 °C 996.8 in /  33751.6 hPa South 9.0 mph /  14.5 km/h 10.5 mph /  16.9 km/h 92 % 0.0 in /  0 mm
06:42 5.1 °F /  -14.9 °C 3.9 °F /  -15.6 °C 996.8 in /  33751.6 hPa South 9.7 mph /  15.6 km/h 15.8 mph /  25.4 km/h 92 % 0.0 in /  0 mm
06:47 5.0 °F /  -15 °C 3.8 °F /  -15.7 °C 996.8 in /  33751.6 hPa South 9.7 mph /  15.6 km/h 15.8 mph /  25.4 km/h 92 % 0.0 in /  0 mm
06:52 4.9 °F /  -15.1 °C 3.7 °F /  -15.7 °C 996.8 in /  33751.6 hPa South 5.0 mph /  8 km/h 13.0 mph /  20.9 km/h 92 % 0.0 in /  0 mm
06:57 4.9 °F /  -15.1 °C 3.9 °F /  -15.6 °C 996.8 in /  33751.6 hPa SSW 9.0 mph /  14.5 km/h 14.0 mph /  22.5 km/h 93 % 0.0 in /  0 mm
07:02 4.9 °F /  -15.1 °C 4.0 °F /  -15.6 °C 996.8 in /  33751.6 hPa South 10.5 mph /  16.9 km/h 16.6 mph /  26.7 km/h 94 % 0.0 in /  0 mm
07:07 4.9 °F /  -15.1 °C 4.0 °F /  -15.6 °C 996.8 in /  33751.6 hPa South 10.1 mph /  16.3 km/h 16.6 mph /  26.7 km/h 94 % 0.0 in /  0 mm
07:12 4.9 °F /  -15.1 °C 4.0 °F /  -15.6 °C 996.8 in /  33751.6 hPa SSW 12.6 mph /  20.3 km/h 17.2 mph /  27.7 km/h 94 % 0.0 in /  0 mm
07:17 4.9 °F /  -15.1 °C 4.2 °F /  -15.4 °C 996.8 in /  33751.6 hPa SSW 7.2 mph /  11.6 km/h 17.2 mph /  27.7 km/h 95 % 0.0 in /  0 mm
07:22 4.9 °F /  -15.1 °C 4.2 °F /  -15.4 °C 996.8 in /  33751.6 hPa South 10.8 mph /  17.4 km/h 16.6 mph /  26.7 km/h 95 % 0.0 in /  0 mm
07:27 4.9 °F /  -15.1 °C 4.2 °F /  -15.4 °C 996.2 in /  33731.3 hPa SSW 12.6 mph /  20.3 km/h 21.6 mph /  34.8 km/h 95 % 0.0 in /  0 mm
07:32 5.0 °F /  -15 °C 4.3 °F /  -15.4 °C 996.2 in /  33731.3 hPa South 16.3 mph /  26.2 km/h 21.6 mph /  34.8 km/h 95 % 0.0 in /  0 mm
07:37 5.0 °F /  -15 °C 4.3 °F /  -15.4 °C 996.2 in /  33731.3 hPa SSW 13.0 mph /  20.9 km/h 19.5 mph /  31.4 km/h 95 % 0.0 in /  0 mm
07:42 5.1 °F /  -14.9 °C 4.5 °F /  -15.3 °C 996.2 in /  33731.3 hPa South 9.0 mph /  14.5 km/h 19.5 mph /  31.4 km/h 96 % 0.0 in /  0 mm
07:47 5.2 °F /  -14.9 °C 4.6 °F /  -15.2 °C 996.2 in /  33731.3 hPa South 17.2 mph /  27.7 km/h 17.7 mph /  28.5 km/h 96 % 0.0 in /  0 mm
07:52 5.3 °F /  -14.8 °C 4.7 °F /  -15.2 °C 996.2 in /  33731.3 hPa SSW 15.1 mph /  24.3 km/h 24.5 mph /  39.4 km/h 96 % 0.0 in /  0 mm
07:57 5.3 °F /  -14.8 °C 4.6 °F /  -15.2 °C 996.8 in /  33751.6 hPa SSW 12.2 mph /  19.6 km/h 24.5 mph /  39.4 km/h 95 % 0.0 in /  0 mm
08:02 5.4 °F /  -14.8 °C 4.7 °F /  -15.2 °C 996.8 in /  33751.6 hPa South 11.9 mph /  19.2 km/h 20.6 mph /  33.2 km/h 95 % 0.0 in /  0 mm
08:07 5.4 °F /  -14.8 °C 4.7 °F /  -15.2 °C 996.8 in /  33751.6 hPa SSW 14.0 mph /  22.5 km/h 24.5 mph /  39.4 km/h 95 % 0.0 in /  0 mm
08:12 5.4 °F /  -14.8 °C 4.7 °F /  -15.2 °C 996.8 in /  33751.6 hPa SSE 11.9 mph /  19.2 km/h 24.5 mph /  39.4 km/h 95 % 0.0 in /  0 mm
08:17 5.4 °F /  -14.8 °C 4.7 °F /  -15.2 °C 996.8 in /  33751.6 hPa SSW 14.0 mph /  22.5 km/h 20.1 mph /  32.3 km/h 95 % 0.0 in /  0 mm
08:22 5.5 °F /  -14.7 °C 4.8 °F /  -15.1 °C 996.2 in /  33731.3 hPa South 16.3 mph /  26.2 km/h 18.3 mph /  29.5 km/h 95 % 0.0 in /  0 mm
08:27 5.7 °F /  -14.6 °C 4.9 °F /  -15.1 °C 996.2 in /  33731.3 hPa South 16.3 mph /  26.2 km/h 21.2 mph /  34.1 km/h 95 % 0.0 in /  0 mm
08:32 6.1 °F /  -14.4 °C 5.3 °F /  -14.8 °C 996.2 in /  33731.3 hPa SSW 17.7 mph /  28.5 km/h 23.0 mph /  37 km/h 95 % 0.0 in /  0 mm
08:37 6.2 °F /  -14.3 °C 5.3 °F /  -14.8 °C 996.2 in /  33731.3 hPa South 23.0 mph /  37 km/h 23.8 mph /  38.3 km/h 94 % 0.0 in /  0 mm
08:42 6.3 °F /  -14.3 °C 5.4 °F /  -14.8 °C 996.2 in /  33731.3 hPa SSE 12.6 mph /  20.3 km/h 24.8 mph /  39.9 km/h 94 % 0.0 in /  0 mm
08:47 6.3 °F /  -14.3 °C 5.2 °F /  -14.9 °C 996.2 in /  33731.3 hPa South 16.6 mph /  26.7 km/h 24.8 mph /  39.9 km/h 93 % 0.0 in /  0 mm
08:48 6.3 °F /  -14.3 °C 5.1 °F /  -14.9 °C 996.2 in /  33731.3 hPa SSW 20.1 mph /  32.3 km/h 24.8 mph /  39.9 km/h 92 % 0.0 in /  0 mm
08:53 6.4 °F /  -14.2 °C 5.2 °F /  -14.9 °C 996.8 in /  33751.6 hPa SSE 15.8 mph /  25.4 km/h 24.5 mph /  39.4 km/h 92 % 0.0 in /  0 mm
08:58 6.4 °F /  -14.2 °C 5.3 °F /  -14.8 °C 996.8 in /  33751.6 hPa South 14.0 mph /  22.5 km/h 24.5 mph /  39.4 km/h 92 % 0.0 in /  0 mm
09:03 6.6 °F /  -14.1 °C 5.2 °F /  -14.9 °C 996.8 in /  33751.6 hPa South 17.2 mph /  27.7 km/h 23.8 mph /  38.3 km/h 91 % 0.0 in /  0 mm
09:08 6.6 °F /  -14.1 °C 5.2 °F /  -14.9 °C 996.8 in /  33751.6 hPa SSE 14.8 mph /  23.8 km/h 28.0 mph /  45.1 km/h 91 % 0.0 in /  0 mm
09:13 6.7 °F /  -14.1 °C 5.2 °F /  -14.9 °C 996.8 in /  33751.6 hPa South 8.7 mph /  14 km/h 28.0 mph /  45.1 km/h 90 % 0.0 in /  0 mm
09:18 6.7 °F /  -14.1 °C 5.2 °F /  -14.9 °C 996.8 in /  33751.6 hPa SSW 17.7 mph /  28.5 km/h 32.0 mph /  51.5 km/h 90 % 0.0 in /  0 mm
09:23 6.8 °F /  -14 °C 5.2 °F /  -14.9 °C 996.2 in /  33731.3 hPa South 10.5 mph /  16.9 km/h 32.0 mph /  51.5 km/h 90 % 0.0 in /  0 mm
09:28 6.8 °F /  -14 °C 5.2 °F /  -14.9 °C 996.2 in /  33731.3 hPa South 20.1 mph /  32.3 km/h 27.4 mph /  44.1 km/h 89 % 0.0 in /  0 mm
09:33 7.2 °F /  -13.8 °C 5.4 °F /  -14.8 °C 996.2 in /  33731.3 hPa South 21.2 mph /  34.1 km/h 24.8 mph /  39.9 km/h 89 % 0.0 in /  0 mm
09:38 7.3 °F /  -13.7 °C 5.7 °F /  -14.6 °C 996.2 in /  33731.3 hPa South 12.2 mph /  19.6 km/h 32.0 mph /  51.5 km/h 89 % 0.0 in /  0 mm
09:43 7.7 °F /  -13.5 °C 6.1 °F /  -14.4 °C 996.2 in /  33731.3 hPa SW 16.3 mph /  26.2 km/h 34.3 mph /  55.2 km/h 89 % 0.0 in /  0 mm
09:48 7.7 °F /  -13.5 °C 5.7 °F /  -14.6 °C 996.2 in /  33731.3 hPa SSW 20.1 mph /  32.3 km/h 34.3 mph /  55.2 km/h 87 % 0.0 in /  0 mm
09:53 7.4 °F /  -13.7 °C 5.1 °F /  -14.9 °C 996.2 in /  33731.3 hPa South 24.8 mph /  39.9 km/h 33.8 mph /  54.4 km/h 85 % 0.0 in /  0 mm
09:58 7.3 °F /  -13.7 °C 5.0 °F /  -15 °C 996.2 in /  33731.3 hPa WSW 23.8 mph /  38.3 km/h 33.8 mph /  54.4 km/h 85 % 0.0 in /  0 mm
10:03 7.4 °F /  -13.7 °C 5.3 °F /  -14.8 °C 996.2 in /  33731.3 hPa South 16.6 mph /  26.7 km/h 28.0 mph /  45.1 km/h 86 % 0.0 in /  0 mm
10:08 7.6 °F /  -13.6 °C 5.3 °F /  -14.8 °C 995.1 in /  33694.1 hPa SSW 13.7 mph /  22 km/h 28.0 mph /  45.1 km/h 86 % 0.0 in /  0 mm
10:13 7.6 °F /  -13.6 °C 5.3 °F /  -14.8 °C 995.1 in /  33694.1 hPa South 18.0 mph /  29 km/h 28.5 mph /  45.9 km/h 86 % 0.0 in /  0 mm
10:18 7.6 °F /  -13.6 °C 5.3 °F /  -14.8 °C 995.1 in /  33694.1 hPa SSW 15.8 mph /  25.4 km/h 28.5 mph /  45.9 km/h 86 % 0.0 in /  0 mm
10:23 7.7 °F /  -13.5 °C 5.4 °F /  -14.8 °C 994.1 in /  33660.2 hPa South 24.8 mph /  39.9 km/h 24.8 mph /  39.9 km/h 86 % 0.0 in /  0 mm
10:28 7.7 °F /  -13.5 °C 5.3 °F /  -14.8 °C 994.1 in /  33660.2 hPa South 15.1 mph /  24.3 km/h 28.0 mph /  45.1 km/h 85 % 0.0 in /  0 mm
10:33 7.7 °F /  -13.5 °C 5.6 °F /  -14.7 °C 994.1 in /  33660.2 hPa SSW 20.6 mph /  33.2 km/h 28.0 mph /  45.1 km/h 86 % 0.0 in /  0 mm
10:38 7.7 °F /  -13.5 °C 5.3 °F /  -14.8 °C 995.1 in /  33694.1 hPa SSW 28.8 mph /  46.3 km/h 30.9 mph /  49.7 km/h 85 % 0.0 in /  0 mm
10:43 7.6 °F /  -13.6 °C 5.2 °F /  -14.9 °C 995.1 in /  33694.1 hPa SSE 23.3 mph /  37.5 km/h 30.9 mph /  49.7 km/h 85 % 0.0 in /  0 mm
10:48 7.6 °F /  -13.6 °C 5.2 °F /  -14.9 °C 995.1 in /  33694.1 hPa SSE 21.2 mph /  34.1 km/h 35.6 mph /  57.3 km/h 85 % 0.0 in /  0 mm
10:53 7.4 °F /  -13.7 °C 5.1 °F /  -14.9 °C 995.1 in /  33694.1 hPa South 27.4 mph /  44.1 km/h 35.6 mph /  57.3 km/h 85 % 0.0 in /  0 mm
10:58 7.3 °F /  -13.7 °C 5.0 °F /  -15 °C 995.1 in /  33694.1 hPa SSW 17.7 mph /  28.5 km/h 35.2 mph /  56.6 km/h 85 % 0.0 in /  0 mm
11:03 7.3 °F /  -13.7 °C 5.2 °F /  -14.9 °C 995.1 in /  33694.1 hPa South 21.9 mph /  35.2 km/h 35.2 mph /  56.6 km/h 86 % 0.0 in /  0 mm
11:08 7.3 °F /  -13.7 °C 5.2 °F /  -14.9 °C 995.1 in /  33694.1 hPa South 32.0 mph /  51.5 km/h 32.0 mph /  51.5 km/h 86 % 0.0 in /  0 mm
11:13 7.2 °F /  -13.8 °C 4.9 °F /  -15.1 °C 995.1 in /  33694.1 hPa SSW 33.5 mph /  53.9 km/h 33.5 mph /  53.9 km/h 86 % 0.0 in /  0 mm
11:18 6.8 °F /  -14 °C 4.7 °F /  -15.2 °C 995.1 in /  33694.1 hPa SSW 15.8 mph /  25.4 km/h 33.5 mph /  53.9 km/h 86 % 0.0 in /  0 mm
11:23 6.6 °F /  -14.1 °C 4.6 °F /  -15.2 °C 995.1 in /  33694.1 hPa South 17.2 mph /  27.7 km/h 33.5 mph /  53.9 km/h 87 % 0.5 in /  12.7 mm
11:28 6.3 °F /  -14.3 °C 4.4 °F /  -15.3 °C 995.1 in /  33694.1 hPa South 31.7 mph /  51 km/h 36.4 mph /  58.6 km/h 88 % 1.0 in /  25.4 mm
11:33 6.2 °F /  -14.3 °C 4.5 °F /  -15.3 °C 995.1 in /  33694.1 hPa SSW 23.0 mph /  37 km/h 37.0 mph /  59.5 km/h 89 % 1.3 in /  33.02 mm
11:38 6.0 °F /  -14.4 °C 4.6 °F /  -15.2 °C 994.1 in /  33660.2 hPa SW 17.7 mph /  28.5 km/h 37.5 mph /  60.3 km/h 91 % 1.8 in /  45.72 mm
11:43 5.7 °F /  -14.6 °C 4.5 °F /  -15.3 °C 994.1 in /  33660.2 hPa SSW 21.2 mph /  34.1 km/h 43.1 mph /  69.4 km/h 92 % 1.8 in /  45.72 mm
11:48 5.5 °F /  -14.7 °C 4.3 °F /  -15.4 °C 994.1 in /  33660.2 hPa SSW 14.8 mph /  23.8 km/h 43.1 mph /  69.4 km/h 92 % 3.3 in /  83.82 mm
11:53 5.3 °F /  -14.8 °C 4.3 °F /  -15.4 °C 994.1 in /  33660.2 hPa South 27.4 mph /  44.1 km/h 40.7 mph /  65.5 km/h 93 % 3.3 in /  83.82 mm
11:58 5.1 °F /  -14.9 °C 4.1 °F /  -15.5 °C 994.1 in /  33660.2 hPa South 20.6 mph /  33.2 km/h 40.7 mph /  65.5 km/h 93 % 4.3 in /  109.22 mm
12:03 5.0 °F /  -15 °C 4.1 °F /  -15.5 °C 994.1 in /  33660.2 hPa South 23.0 mph /  37 km/h 37.5 mph /  60.3 km/h 94 % 4.3 in /  109.22 mm
12:08 5.0 °F /  -15 °C 4.1 °F /  -15.5 °C 994.1 in /  33660.2 hPa SSW 21.9 mph /  35.2 km/h 41.7 mph /  67.1 km/h 94 % 4.8 in /  121.92 mm
12:13 4.9 °F /  -15.1 °C 4.2 °F /  -15.4 °C 994.1 in /  33660.2 hPa SSW 27.7 mph /  44.6 km/h 41.7 mph /  67.1 km/h 95 % 4.8 in /  121.92 mm
12:18 4.9 °F /  -15.1 °C 4.2 °F /  -15.4 °C 994.1 in /  33660.2 hPa South 28.0 mph /  45.1 km/h 39.6 mph /  63.7 km/h 95 % 4.8 in /  121.92 mm
12:23 4.9 °F /  -15.1 °C 4.3 °F /  -15.4 °C 994.1 in /  33660.2 hPa South 25.6 mph /  41.2 km/h 39.6 mph /  63.7 km/h 96 % 4.3 in /  109.22 mm
12:28 4.9 °F /  -15.1 °C 4.3 °F /  -15.4 °C 994.1 in /  33660.2 hPa South 24.8 mph /  39.9 km/h 38.9 mph /  62.6 km/h 96 % 4.1 in /  104.14 mm
12:33 4.9 °F /  -15.1 °C 4.4 °F /  -15.3 °C 994.1 in /  33660.2 hPa South 30.2 mph /  48.6 km/h 38.9 mph /  62.6 km/h 97 % 3.8 in /  96.52 mm
12:38 5.0 °F /  -15 °C 4.6 °F /  -15.2 °C 994.1 in /  33660.2 hPa South 25.9 mph /  41.7 km/h 36.4 mph /  58.6 km/h 97 % 3.3 in /  83.82 mm
12:43 5.0 °F /  -15 °C 4.6 °F /  -15.2 °C 994.1 in /  33660.2 hPa SSE 31.4 mph /  50.5 km/h 36.4 mph /  58.6 km/h 97 % 3.3 in /  83.82 mm
12:48 5.1 °F /  -14.9 °C 4.7 °F /  -15.2 °C 994.1 in /  33660.2 hPa South 17.7 mph /  28.5 km/h 40.7 mph /  65.5 km/h 97 % 1.8 in /  45.72 mm
12:53 5.2 °F /  -14.9 °C 4.8 °F /  -15.1 °C 993.1 in /  33626.4 hPa South 16.3 mph /  26.2 km/h 40.7 mph /  65.5 km/h 97 % 1.8 in /  45.72 mm
12:58 5.2 °F /  -14.9 °C 4.8 °F /  -15.1 °C 993.1 in /  33626.4 hPa SSW 17.7 mph /  28.5 km/h 32.3 mph /  52 km/h 97 % 0.8 in /  20.32 mm
13:03 5.2 °F /  -14.9 °C 4.8 °F /  -15.1 °C 993.1 in /  33626.4 hPa South 14.0 mph /  22.5 km/h 35.2 mph /  56.6 km/h 97 % 0.8 in /  20.32 mm
13:08 5.3 °F /  -14.8 °C 4.8 °F /  -15.1 °C 993.1 in /  33626.4 hPa SSW 20.9 mph /  33.6 km/h 35.2 mph /  56.6 km/h 97 % 0.3 in /  7.62 mm
13:13 5.3 °F /  -14.8 °C 4.8 °F /  -15.1 °C 993.1 in /  33626.4 hPa SSW 24.8 mph /  39.9 km/h 37.0 mph /  59.5 km/h 97 % 0.3 in /  7.62 mm
13:18 5.3 °F /  -14.8 °C 4.8 °F /  -15.1 °C 993.1 in /  33626.4 hPa SSW 17.2 mph /  27.7 km/h 37.0 mph /  59.5 km/h 97 % 0.5 in /  12.7 mm
13:23 5.3 °F /  -14.8 °C 4.8 °F /  -15.1 °C 993.1 in /  33626.4 hPa SSW 25.3 mph /  40.7 km/h 32.0 mph /  51.5 km/h 97 % 0.3 in /  7.62 mm
13:28 5.3 °F /  -14.8 °C 4.8 °F /  -15.1 °C 993.1 in /  33626.4 hPa SSW 24.5 mph /  39.4 km/h 36.4 mph /  58.6 km/h 97 % 0.3 in /  7.62 mm
13:33 5.3 °F /  -14.8 °C 4.7 °F /  -15.2 °C 993.1 in /  33626.4 hPa South 16.9 mph /  27.2 km/h 36.4 mph /  58.6 km/h 96 % 0.3 in /  7.62 mm
13:38 5.3 °F /  -14.8 °C 4.7 °F /  -15.2 °C 993.1 in /  33626.4 hPa SSW 17.2 mph /  27.7 km/h 31.7 mph /  51 km/h 96 % 0.3 in /  7.62 mm
13:43 5.4 °F /  -14.8 °C 4.8 °F /  -15.1 °C 993.1 in /  33626.4 hPa South 22.4 mph /  36 km/h 25.9 mph /  41.7 km/h 96 % 0.3 in /  7.62 mm
13:48 5.4 °F /  -14.8 °C 4.8 °F /  -15.1 °C 993.1 in /  33626.4 hPa SSW 16.3 mph /  26.2 km/h 30.6 mph /  49.2 km/h 96 % 0.3 in /  7.62 mm
13:53 5.5 °F /  -14.7 °C 4.9 °F /  -15.1 °C 993.1 in /  33626.4 hPa SSW 19.5 mph /  31.4 km/h 31.4 mph /  50.5 km/h 96 % 0.3 in /  7.62 mm
13:58 5.6 °F /  -14.7 °C 5.0 °F /  -15 °C 993.1 in /  33626.4 hPa SSW 16.3 mph /  26.2 km/h 31.4 mph /  50.5 km/h 96 % 0.3 in /  7.62 mm
14:03 5.6 °F /  -14.7 °C 5.0 °F /  -15 °C 993.1 in /  33626.4 hPa SW 11.9 mph /  19.2 km/h 24.8 mph /  39.9 km/h 96 % 0.3 in /  7.62 mm
14:08 5.7 °F /  -14.6 °C 5.2 °F /  -14.9 °C 993.1 in /  33626.4 hPa SSE 27.4 mph /  44.1 km/h 27.4 mph /  44.1 km/h 97 % 0.3 in /  7.62 mm
14:13 5.8 °F /  -14.6 °C 5.3 °F /  -14.8 °C 993.1 in /  33626.4 hPa South 23.8 mph /  38.3 km/h 28.5 mph /  45.9 km/h 97 % 0.3 in /  7.62 mm
14:18 5.9 °F /  -14.5 °C 5.4 °F /  -14.8 °C 993.1 in /  33626.4 hPa SW 14.0 mph /  22.5 km/h 28.5 mph /  45.9 km/h 97 % 0.0 in /  0 mm
14:23 5.9 °F /  -14.5 °C 5.4 °F /  -14.8 °C 993.1 in /  33626.4 hPa South 19.8 mph /  31.9 km/h 31.7 mph /  51 km/h 97 % 0.0 in /  0 mm
14:28 6.0 °F /  -14.4 °C 5.6 °F /  -14.7 °C 993.1 in /  33626.4 hPa SW 10.1 mph /  16.3 km/h 31.7 mph /  51 km/h 97 % 0.0 in /  0 mm
14:33 6.0 °F /  -14.4 °C 5.6 °F /  -14.7 °C 993.1 in /  33626.4 hPa SSW 19.8 mph /  31.9 km/h 20.9 mph /  33.6 km/h 97 % 0.0 in /  0 mm
14:38 6.1 °F /  -14.4 °C 5.6 °F /  -14.7 °C 993.1 in /  33626.4 hPa SSW 20.1 mph /  32.3 km/h 20.9 mph /  33.6 km/h 97 % 0.0 in /  0 mm
14:43 6.2 °F /  -14.3 °C 5.7 °F /  -14.6 °C 993.1 in /  33626.4 hPa SSW 11.9 mph /  19.2 km/h 22.7 mph /  36.5 km/h 97 % 0.0 in /  0 mm
14:48 6.3 °F /  -14.3 °C 5.8 °F /  -14.6 °C 993.1 in /  33626.4 hPa SSW 15.8 mph /  25.4 km/h 22.7 mph /  36.5 km/h 97 % 0.0 in /  0 mm
14:53 6.4 °F /  -14.2 °C 5.9 °F /  -14.5 °C 993.1 in /  33626.4 hPa South 11.9 mph /  19.2 km/h 19.8 mph /  31.9 km/h 97 % 0.0 in /  0 mm
14:58 6.7 °F /  -14.1 °C 6.2 °F /  -14.3 °C 993.1 in /  33626.4 hPa South 20.6 mph /  33.2 km/h 20.6 mph /  33.2 km/h 97 % 0.0 in /  0 mm
15:03 6.9 °F /  -13.9 °C 6.5 °F /  -14.2 °C 993.1 in /  33626.4 hPa SSW 19.1 mph /  30.7 km/h 23.0 mph /  37 km/h 97 % 0.0 in /  0 mm
15:08 7.3 °F /  -13.7 °C 6.9 °F /  -13.9 °C 992.1 in /  33592.5 hPa SSW 17.2 mph /  27.7 km/h 23.0 mph /  37 km/h 97 % 0.0 in /  0 mm
15:13 7.6 °F /  -13.6 °C 7.1 °F /  -13.8 °C 992.1 in /  33592.5 hPa SSW 17.7 mph /  28.5 km/h 22.4 mph /  36 km/h 97 % 0.0 in /  0 mm
15:18 7.6 °F /  -13.6 °C 7.1 °F /  -13.8 °C 992.1 in /  33592.5 hPa SSW 16.3 mph /  26.2 km/h 22.4 mph /  36 km/h 97 % 0.0 in /  0 mm
15:23 7.6 °F /  -13.6 °C 6.9 °F /  -13.9 °C 992.1 in /  33592.5 hPa SSW 10.1 mph /  16.3 km/h 19.8 mph /  31.9 km/h 96 % 0.0 in /  0 mm
15:28 7.7 °F /  -13.5 °C 7.1 °F /  -13.8 °C 992.1 in /  33592.5 hPa SSW 10.1 mph /  16.3 km/h 19.8 mph /  31.9 km/h 96 % 0.0 in /  0 mm
15:33 7.7 °F /  -13.5 °C 7.2 °F /  -13.8 °C 992.1 in /  33592.5 hPa SSW 13.0 mph /  20.9 km/h 21.2 mph /  34.1 km/h 96 % 0.0 in /  0 mm
15:38 7.9 °F /  -13.4 °C 7.2 °F /  -13.8 °C 993.1 in /  33626.4 hPa SW 9.0 mph /  14.5 km/h 21.2 mph /  34.1 km/h 95 % 0.0 in /  0 mm
15:43 7.9 °F /  -13.4 °C 7.2 °F /  -13.8 °C 993.1 in /  33626.4 hPa SW 8.7 mph /  14 km/h 15.8 mph /  25.4 km/h 95 % 0.0 in /  0 mm
15:44 7.9 °F /  -13.4 °C 7.2 °F /  -13.8 °C 993.1 in /  33626.4 hPa SSW 10.5 mph /  16.9 km/h 15.8 mph /  25.4 km/h 95 % 0.0 in /  0 mm
15:49 7.8 °F /  -13.4 °C 6.9 °F /  -13.9 °C 993.1 in /  33626.4 hPa South 10.1 mph /  16.3 km/h 15.8 mph /  25.4 km/h 94 % 0.0 in /  0 mm
15:54 7.8 °F /  -13.4 °C 6.9 °F /  -13.9 °C 993.1 in /  33626.4 hPa SSW 13.0 mph /  20.9 km/h 15.8 mph /  25.4 km/h 94 % 0.0 in /  0 mm
15:59 7.8 °F /  -13.4 °C 6.9 °F /  -13.9 °C 993.1 in /  33626.4 hPa WSW 10.5 mph /  16.9 km/h 16.9 mph /  27.2 km/h 94 % 0.0 in /  0 mm
16:04 7.8 °F /  -13.4 °C 6.8 °F /  -14 °C 993.1 in /  33626.4 hPa WSW 16.9 mph /  27.2 km/h 16.9 mph /  27.2 km/h 93 % 0.0 in /  0 mm
16:09 7.9 °F /  -13.4 °C 6.9 °F /  -13.9 °C 993.1 in /  33626.4 hPa WSW 11.9 mph /  19.2 km/h 19.1 mph /  30.7 km/h 93 % 0.0 in /  0 mm
16:14 8.1 °F /  -13.3 °C 7.0 °F /  -13.9 °C 993.1 in /  33626.4 hPa SW 12.6 mph /  20.3 km/h 19.1 mph /  30.7 km/h 93 % 0.0 in /  0 mm
16:19 8.1 °F /  -13.3 °C 7.1 °F /  -13.8 °C 993.1 in /  33626.4 hPa SW 9.0 mph /  14.5 km/h 17.2 mph /  27.7 km/h 93 % 0.0 in /  0 mm
16:24 8.1 °F /  -13.3 °C 7.1 °F /  -13.8 °C 993.1 in /  33626.4 hPa WSW 10.5 mph /  16.9 km/h 17.2 mph /  27.7 km/h 93 % 0.0 in /  0 mm
16:29 8.1 °F /  -13.3 °C 6.9 °F /  -13.9 °C 993.1 in /  33626.4 hPa SW 8.7 mph /  14 km/h 14.8 mph /  23.8 km/h 92 % 0.0 in /  0 mm
16:34 8.1 °F /  -13.3 °C 6.9 °F /  -13.9 °C 993.1 in /  33626.4 hPa SSW 9.3 mph /  15 km/h 14.8 mph /  23.8 km/h 92 % 0.0 in /  0 mm
16:39 8.1 °F /  -13.3 °C 6.9 °F /  -13.9 °C 993.1 in /  33626.4 hPa WSW 10.5 mph /  16.9 km/h 17.7 mph /  28.5 km/h 92 % 0.0 in /  0 mm
16:44 8.3 °F /  -13.2 °C 7.1 °F /  -13.8 °C 993.1 in /  33626.4 hPa WSW 14.0 mph /  22.5 km/h 17.7 mph /  28.5 km/h 92 % 0.0 in /  0 mm
16:49 8.7 °F /  -12.9 °C 7.7 °F /  -13.5 °C 993.1 in /  33626.4 hPa SSW 7.2 mph /  11.6 km/h 17.7 mph /  28.5 km/h 93 % 0.0 in /  0 mm
16:54 9.0 °F /  -12.8 °C 7.8 °F /  -13.4 °C 993.1 in /  33626.4 hPa SSW 13.0 mph /  20.9 km/h 17.7 mph /  28.5 km/h 92 % 0.0 in /  0 mm
16:59 9.1 °F /  -12.7 °C 7.7 °F /  -13.5 °C 993.1 in /  33626.4 hPa WSW 9.7 mph /  15.6 km/h 17.7 mph /  28.5 km/h 91 % 0.0 in /  0 mm
17:04 9.2 °F /  -12.7 °C 7.7 °F /  -13.5 °C 993.1 in /  33626.4 hPa SW 19.8 mph /  31.9 km/h 19.8 mph /  31.9 km/h 90 % 0.0 in /  0 mm
17:09 9.2 °F /  -12.7 °C 7.2 °F /  -13.8 °C 993.1 in /  33626.4 hPa SW 20.9 mph /  33.6 km/h 45.1 mph /  72.6 km/h 87 % 0.0 in /  0 mm
17:14 9.1 °F /  -12.7 °C 6.7 °F /  -14.1 °C 993.1 in /  33626.4 hPa West 17.2 mph /  27.7 km/h 45.1 mph /  72.6 km/h 85 % 0.0 in /  0 mm
17:19 9.0 °F /  -12.8 °C 6.1 °F /  -14.4 °C 993.1 in /  33626.4 hPa West 35.6 mph /  57.3 km/h 35.6 mph /  57.3 km/h 82 % 0.0 in /  0 mm
17:24 8.9 °F /  -12.8 °C 5.3 °F /  -14.8 °C 992.1 in /  33592.5 hPa WSW 31.7 mph /  51 km/h 38.9 mph /  62.6 km/h 78 % 0.0 in /  0 mm
17:29 8.5 °F /  -13.1 °C 5.1 °F /  -14.9 °C 992.1 in /  33592.5 hPa West 26.7 mph /  43 km/h 38.9 mph /  62.6 km/h 79 % 0.0 in /  0 mm
17:34 8.4 °F /  -13.1 °C 5.3 °F /  -14.8 °C 992.1 in /  33592.5 hPa WSW 24.5 mph /  39.4 km/h 36.0 mph /  57.9 km/h 81 % 0.0 in /  0 mm
17:39 8.4 °F /  -13.1 °C 5.6 °F /  -14.7 °C 993.1 in /  33626.4 hPa WSW 20.9 mph /  33.6 km/h 31.4 mph /  50.5 km/h 82 % 0.0 in /  0 mm
17:44 8.3 °F /  -13.2 °C 5.4 °F /  -14.8 °C 993.1 in /  33626.4 hPa West 27.7 mph /  44.6 km/h 33.1 mph /  53.3 km/h 82 % 0.0 in /  0 mm
17:49 8.4 °F /  -13.1 °C 5.6 °F /  -14.7 °C 993.1 in /  33626.4 hPa West 19.5 mph /  31.4 km/h 41.4 mph /  66.6 km/h 82 % 0.0 in /  0 mm
17:54 8.4 °F /  -13.1 °C 5.7 °F /  -14.6 °C 993.1 in /  33626.4 hPa WSW 25.9 mph /  41.7 km/h 41.4 mph /  66.6 km/h 83 % 0.0 in /  0 mm
17:59 8.4 °F /  -13.1 °C 5.6 °F /  -14.7 °C 993.1 in /  33626.4 hPa WSW 20.9 mph /  33.6 km/h 28.0 mph /  45.1 km/h 82 % 0.0 in /  0 mm
18:04 8.3 °F /  -13.2 °C 5.3 °F /  -14.8 °C 993.1 in /  33626.4 hPa WSW 24.8 mph /  39.9 km/h 33.1 mph /  53.3 km/h 81 % 0.0 in /  0 mm
18:09 8.2 °F /  -13.2 °C 5.2 °F /  -14.9 °C 994.1 in /  33660.2 hPa WSW 20.1 mph /  32.3 km/h 33.1 mph /  53.3 km/h 81 % 0.0 in /  0 mm
18:14 8.1 °F /  -13.3 °C 5.2 °F /  -14.9 °C 994.1 in /  33660.2 hPa West 20.6 mph /  33.2 km/h 31.4 mph /  50.5 km/h 82 % 0.0 in /  0 mm
18:19 7.9 °F /  -13.4 °C 5.1 °F /  -14.9 °C 994.1 in /  33660.2 hPa SW 18.3 mph /  29.5 km/h 24.8 mph /  39.9 km/h 82 % 0.0 in /  0 mm
18:24 7.8 °F /  -13.4 °C 5.1 °F /  -14.9 °C 994.1 in /  33660.2 hPa WSW 20.6 mph /  33.2 km/h 21.6 mph /  34.8 km/h 83 % 0.0 in /  0 mm
18:29 7.7 °F /  -13.5 °C 5.1 °F /  -14.9 °C 994.1 in /  33660.2 hPa WSW 14.0 mph /  22.5 km/h 21.6 mph /  34.8 km/h 84 % 0.0 in /  0 mm
18:34 7.4 °F /  -13.7 °C 5.1 °F /  -14.9 °C 994.1 in /  33660.2 hPa WSW 16.6 mph /  26.7 km/h 21.6 mph /  34.8 km/h 85 % 4.6 in /  116.84 mm
18:39 7.4 °F /  -13.7 °C 5.3 °F /  -14.8 °C 994.1 in /  33660.2 hPa WSW 16.6 mph /  26.7 km/h 23.3 mph /  37.5 km/h 86 % 0.0 in /  0 mm
18:44 7.3 °F /  -13.7 °C 5.2 °F /  -14.9 °C 994.1 in /  33660.2 hPa WSW 13.0 mph /  20.9 km/h 23.3 mph /  37.5 km/h 86 % 0.0 in /  0 mm
18:49 7.3 °F /  -13.7 °C 5.3 °F /  -14.8 °C 994.1 in /  33660.2 hPa WSW 15.8 mph /  25.4 km/h 19.8 mph /  31.9 km/h 87 % 0.0 in /  0 mm
18:54 7.3 °F /  -13.7 °C 5.2 °F /  -14.9 °C 994.1 in /  33660.2 hPa WSW 16.3 mph /  26.2 km/h 19.8 mph /  31.9 km/h 87 % 0.0 in /  0 mm
18:59 7.2 °F /  -13.8 °C 5.1 °F /  -14.9 °C 994.1 in /  33660.2 hPa WSW 10.5 mph /  16.9 km/h 16.3 mph /  26.2 km/h 87 % 0.0 in /  0 mm
19:04 7.1 °F /  -13.8 °C 5.2 °F /  -14.9 °C 994.1 in /  33660.2 hPa WSW 13.7 mph /  22 km/h 16.6 mph /  26.7 km/h 88 % 0.0 in /  0 mm
19:09 7.1 °F /  -13.8 °C 5.4 °F /  -14.8 °C 994.1 in /  33660.2 hPa SW 15.1 mph /  24.3 km/h 17.7 mph /  28.5 km/h 89 % 0.0 in /  0 mm
19:14 7.2 °F /  -13.8 °C 5.4 °F /  -14.8 °C 994.1 in /  33660.2 hPa WSW 16.3 mph /  26.2 km/h 20.9 mph /  33.6 km/h 89 % 0.0 in /  0 mm
19:19 7.1 °F /  -13.8 °C 5.5 °F /  -14.7 °C 994.1 in /  33660.2 hPa SW 17.7 mph /  28.5 km/h 20.9 mph /  33.6 km/h 90 % 0.0 in /  0 mm
19:24 7.1 °F /  -13.8 °C 5.5 °F /  -14.7 °C 995.1 in /  33694.1 hPa WSW 17.2 mph /  27.7 km/h 24.8 mph /  39.9 km/h 90 % 0.0 in /  0 mm
19:29 6.9 °F /  -13.9 °C 5.4 °F /  -14.8 °C 995.1 in /  33694.1 hPa WSW 12.2 mph /  19.6 km/h 24.8 mph /  39.9 km/h 90 % 0.0 in /  0 mm
19:34 6.9 °F /  -13.9 °C 5.4 °F /  -14.8 °C 995.1 in /  33694.1 hPa WSW 12.6 mph /  20.3 km/h 23.8 mph /  38.3 km/h 90 % 0.0 in /  0 mm
19:39 6.9 °F /  -13.9 °C 5.4 °F /  -14.8 °C 995.1 in /  33694.1 hPa West 24.5 mph /  39.4 km/h 24.5 mph /  39.4 km/h 90 % 0.0 in /  0 mm
19:44 7.1 °F /  -13.8 °C 5.7 °F /  -14.6 °C 995.1 in /  33694.1 hPa WSW 15.8 mph /  25.4 km/h 24.5 mph /  39.4 km/h 91 % 0.0 in /  0 mm
19:49 7.1 °F /  -13.8 °C 5.5 °F /  -14.7 °C 995.1 in /  33694.1 hPa WSW 17.7 mph /  28.5 km/h 23.8 mph /  38.3 km/h 90 % 0.0 in /  0 mm
19:54 6.9 °F /  -13.9 °C 5.4 °F /  -14.8 °C 994.1 in /  33660.2 hPa WSW 15.8 mph /  25.4 km/h 24.8 mph /  39.9 km/h 90 % 0.0 in /  0 mm
19:59 6.9 °F /  -13.9 °C 5.4 °F /  -14.8 °C 994.1 in /  33660.2 hPa WSW 19.8 mph /  31.9 km/h 27.0 mph /  43.5 km/h 90 % 0.0 in /  0 mm
20:04 6.9 °F /  -13.9 °C 5.4 °F /  -14.8 °C 994.1 in /  33660.2 hPa WSW 16.9 mph /  27.2 km/h 27.0 mph /  43.5 km/h 90 % 0.0 in /  0 mm
20:09 6.8 °F /  -14 °C 5.2 °F /  -14.9 °C 995.1 in /  33694.1 hPa SW 16.6 mph /  26.7 km/h 27.4 mph /  44.1 km/h 89 % 0.0 in /  0 mm
20:14 6.8 °F /  -14 °C 5.2 °F /  -14.9 °C 995.1 in /  33694.1 hPa WSW 18.0 mph /  29 km/h 27.4 mph /  44.1 km/h 90 % 0.0 in /  0 mm
20:19 6.7 °F /  -14.1 °C 5.0 °F /  -15 °C 995.1 in /  33694.1 hPa WSW 13.7 mph /  22 km/h 21.2 mph /  34.1 km/h 89 % 0.0 in /  0 mm
20:24 6.7 °F /  -14.1 °C 5.0 °F /  -15 °C 994.1 in /  33660.2 hPa SW 13.7 mph /  22 km/h 21.2 mph /  34.1 km/h 89 % 0.0 in /  0 mm
20:29 6.7 °F /  -14.1 °C 5.0 °F /  -15 °C 994.1 in /  33660.2 hPa SW 15.4 mph /  24.8 km/h 18.0 mph /  29 km/h 89 % 0.0 in /  0 mm
20:34 6.7 °F /  -14.1 °C 5.0 °F /  -15 °C 994.1 in /  33660.2 hPa SW 12.6 mph /  20.3 km/h 18.0 mph /  29 km/h 89 % 0.0 in /  0 mm
20:35 6.7 °F /  -14.1 °C 5.0 °F /  -15 °C 994.1 in /  33660.2 hPa SW 11.9 mph /  19.2 km/h 18.0 mph /  29 km/h 89 % 0.0 in /  0 mm
20:40 6.7 °F /  -14.1 °C 5.0 °F /  -15 °C 995.1 in /  33694.1 hPa SSW 13.0 mph /  20.9 km/h 17.7 mph /  28.5 km/h 89 % 0.0 in /  0 mm
20:45 6.7 °F /  -14.1 °C 5.0 °F /  -15 °C 995.1 in /  33694.1 hPa SW 12.2 mph /  19.6 km/h 20.1 mph /  32.3 km/h 89 % 0.0 in /  0 mm
20:50 6.7 °F /  -14.1 °C 4.8 °F /  -15.1 °C 995.1 in /  33694.1 hPa SW 14.8 mph /  23.8 km/h 20.1 mph /  32.3 km/h 88 % 0.0 in /  0 mm
20:55 6.7 °F /  -14.1 °C 4.8 °F /  -15.1 °C 995.1 in /  33694.1 hPa WSW 12.2 mph /  19.6 km/h 20.6 mph /  33.2 km/h 88 % 0.0 in /  0 mm
21:00 6.8 °F /  -14 °C 4.9 °F /  -15.1 °C 995.1 in /  33694.1 hPa SSW 13.0 mph /  20.9 km/h 20.6 mph /  33.2 km/h 88 % 0.0 in /  0 mm
21:05 6.8 °F /  -14 °C 5.0 °F /  -15 °C 995.1 in /  33694.1 hPa SSW 9.3 mph /  15 km/h 18.0 mph /  29 km/h 88 % 0.0 in /  0 mm
21:11 6.8 °F /  -14 °C 4.8 °F /  -15.1 °C 994.1 in /  33660.2 hPa SW 9.3 mph /  15 km/h 19.5 mph /  31.4 km/h 87 % 0.0 in /  0 mm
21:16 6.8 °F /  -14 °C 5.0 °F /  -15 °C 994.1 in /  33660.2 hPa SW 18.3 mph /  29.5 km/h 20.6 mph /  33.2 km/h 88 % 0.0 in /  0 mm
21:21 6.8 °F /  -14 °C 5.0 °F /  -15 °C 994.1 in /  33660.2 hPa WSW 21.2 mph /  34.1 km/h 23.3 mph /  37.5 km/h 88 % 0.0 in /  0 mm
21:26 6.8 °F /  -14 °C 5.0 °F /  -15 °C 995.1 in /  33694.1 hPa SSW 17.7 mph /  28.5 km/h 29.1 mph /  46.8 km/h 88 % 0.0 in /  0 mm
21:31 6.9 °F /  -13.9 °C 5.3 °F /  -14.8 °C 995.1 in /  33694.1 hPa SW 23.8 mph /  38.3 km/h 29.1 mph /  46.8 km/h 89 % 0.0 in /  0 mm
21:36 6.9 °F /  -13.9 °C 5.3 °F /  -14.8 °C 995.1 in /  33694.1 hPa WSW 16.3 mph /  26.2 km/h 27.4 mph /  44.1 km/h 89 % 0.0 in /  0 mm
21:41 6.9 °F /  -13.9 °C 5.3 °F /  -14.8 °C 995.1 in /  33694.1 hPa SW 17.7 mph /  28.5 km/h 20.9 mph /  33.6 km/h 89 % 0.0 in /  0 mm
21:46 6.9 °F /  -13.9 °C 5.6 °F /  -14.7 °C 995.1 in /  33694.1 hPa SSW 16.3 mph /  26.2 km/h 20.9 mph /  33.6 km/h 91 % 0.0 in /  0 mm
21:51 6.8 °F /  -14 °C 5.5 °F /  -14.7 °C 995.1 in /  33694.1 hPa SW 17.2 mph /  27.7 km/h 20.6 mph /  33.2 km/h 91 % 0.0 in /  0 mm
21:54 6.8 °F /  -14 °C 5.5 °F /  -14.7 °C 995.1 in /  33694.1 hPa SSW 20.6 mph /  33.2 km/h 20.6 mph /  33.2 km/h 91 % 0.0 in /  0 mm
21:59 6.8 °F /  -14 °C 5.5 °F /  -14.7 °C 995.1 in /  33694.1 hPa SSW 15.4 mph /  24.8 km/h 25.6 mph /  41.2 km/h 91 % 0.0 in /  0 mm
22:04 6.8 °F /  -14 °C 5.5 °F /  -14.7 °C 995.1 in /  33694.1 hPa SW 23.8 mph /  38.3 km/h 28.8 mph /  46.3 km/h 91 % 0.0 in /  0 mm
22:09 6.8 °F /  -14 °C 5.4 °F /  -14.8 °C 995.1 in /  33694.1 hPa SSW 21.2 mph /  34.1 km/h 28.8 mph /  46.3 km/h 91 % 0.0 in /  0 mm
22:14 6.7 °F /  -14.1 °C 5.4 °F /  -14.8 °C 995.1 in /  33694.1 hPa SSW 17.2 mph /  27.7 km/h 24.5 mph /  39.4 km/h 92 % 0.0 in /  0 mm
22:19 6.6 °F /  -14.1 °C 5.5 °F /  -14.7 °C 995.1 in /  33694.1 hPa SSW 19.1 mph /  30.7 km/h 23.8 mph /  38.3 km/h 93 % 0.0 in /  0 mm
22:24 6.6 °F /  -14.1 °C 5.7 °F /  -14.6 °C 994.1 in /  33660.2 hPa SSW 20.9 mph /  33.6 km/h 23.0 mph /  37 km/h 94 % 0.5 in /  12.7 mm
22:29 6.6 °F /  -14.1 °C 5.8 °F /  -14.6 °C 994.1 in /  33660.2 hPa SSW 15.8 mph /  25.4 km/h 23.8 mph /  38.3 km/h 95 % 1.0 in /  25.4 mm
22:34 6.6 °F /  -14.1 °C 6.0 °F /  -14.4 °C 994.1 in /  33660.2 hPa SW 17.2 mph /  27.7 km/h 28.0 mph /  45.1 km/h 96 % 1.0 in /  25.4 mm
22:39 6.6 °F /  -14.1 °C 6.0 °F /  -14.4 °C 995.1 in /  33694.1 hPa SW 16.6 mph /  26.7 km/h 28.0 mph /  45.1 km/h 96 % 1.0 in /  25.4 mm
22:44 6.6 °F /  -14.1 °C 6.0 °F /  -14.4 °C 995.1 in /  33694.1 hPa SW 17.7 mph /  28.5 km/h 27.7 mph /  44.6 km/h 96 % 1.0 in /  25.4 mm
22:49 6.6 °F /  -14.1 °C 6.0 °F /  -14.4 °C 995.1 in /  33694.1 hPa WSW 14.3 mph /  23 km/h 24.5 mph /  39.4 km/h 96 % 1.0 in /  25.4 mm
22:54 6.6 °F /  -14.1 °C 6.1 °F /  -14.4 °C 995.1 in /  33694.1 hPa WSW 12.2 mph /  19.6 km/h 21.2 mph /  34.1 km/h 97 % 1.0 in /  25.4 mm
22:59 6.4 °F /  -14.2 °C 6.0 °F /  -14.4 °C 995.1 in /  33694.1 hPa WSW 20.9 mph /  33.6 km/h 21.2 mph /  34.1 km/h 97 % 1.0 in /  25.4 mm
23:04 6.6 °F /  -14.1 °C 6.1 °F /  -14.4 °C 995.1 in /  33694.1 hPa West 12.2 mph /  19.6 km/h 20.9 mph /  33.6 km/h 97 % 3.6 in /  91.44 mm
23:09 6.6 °F /  -14.1 °C 6.1 °F /  -14.4 °C 995.1 in /  33694.1 hPa WSW 11.9 mph /  19.2 km/h 20.9 mph /  33.6 km/h 97 % 3.6 in /  91.44 mm
23:14 6.7 °F /  -14.1 °C 6.4 °F /  -14.2 °C 995.1 in /  33694.1 hPa WSW 20.9 mph /  33.6 km/h 23.8 mph /  38.3 km/h 98 % 3.6 in /  91.44 mm
23:19 6.7 °F /  -14.1 °C 6.4 °F /  -14.2 °C 995.1 in /  33694.1 hPa WSW 19.5 mph /  31.4 km/h 24.5 mph /  39.4 km/h 98 % 3.6 in /  91.44 mm
23:24 6.7 °F /  -14.1 °C 6.4 °F /  -14.2 °C 995.1 in /  33694.1 hPa WSW 19.1 mph /  30.7 km/h 24.5 mph /  39.4 km/h 98 % 2.8 in /  71.12 mm
23:29 6.7 °F /  -14.1 °C 6.4 °F /  -14.2 °C 995.1 in /  33694.1 hPa WSW 12.2 mph /  19.6 km/h 21.6 mph /  34.8 km/h 98 % 2.3 in /  58.42 mm
23:34 6.7 °F /  -14.1 °C 6.4 °F /  -14.2 °C 995.1 in /  33694.1 hPa WSW 16.6 mph /  26.7 km/h 21.6 mph /  34.8 km/h 98 % 2.8 in /  71.12 mm
23:39 6.7 °F /  -14.1 °C 6.4 °F /  -14.2 °C 995.1 in /  33694.1 hPa WSW 18.0 mph /  29 km/h 22.7 mph /  36.5 km/h 98 % 2.8 in /  71.12 mm
23:44 6.7 °F /  -14.1 °C 6.4 °F /  -14.2 °C 995.1 in /  33694.1 hPa WSW 17.7 mph /  28.5 km/h 22.7 mph /  36.5 km/h 98 % 2.8 in /  71.12 mm
23:49 6.7 °F /  -14.1 °C 6.4 °F /  -14.2 °C 995.1 in /  33694.1 hPa West 12.6 mph /  20.3 km/h 20.1 mph /  32.3 km/h 98 % 2.8 in /  71.12 mm
23:54 6.8 °F /  -14 °C 6.4 °F /  -14.2 °C 996.2 in /  33731.3 hPa WSW 5.0 mph /  8 km/h 19.8 mph /  31.9 km/h 98 % 2.8 in /  71.12 mm
23:59 6.8 °F /  -14 °C 6.4 °F /  -14.2 °C 996.2 in /  33731.3 hPa WSW 6.9 mph /  11.1 km/h 14.0 mph /  22.5 km/h 98 % 2.8 in /  71.12 mm
Le Gheer Warneton
Courtoisie de Weather Underground - 2.25 mb

Mise a jour : 23/02/2018 07:29:11
Généré par Cumulus 1.9.4 (1099)